Portada
METAR-TAF:

METAR-TAF

Aeropuertos :

Aeropuerto Internacional Fua'amotu

Tongatapu, Tonga

latitud: 21-14S, longitud: 175-09W, altitud: 38 m

Observación

El informe se hizo hace 37 minutos, a las 05:00 UTC
Viento 7 kt del este
Temperatura 24°C
Humedad 89%
Presión 1019 hPa
Visibilidad 10 km o más
Nubes dispersas a una altura de 1600 ft
Cielo nuboso a una altura de 28000 ft

METAR: NFTF 150500Z 09007KT 9999 SCT016 BKN280 24/22 Q1019

Hora: 18:37 (05:37 UTC)

Pronóstico

El informe se hizo hace 23 minutos, a las 05:14 UTC
Pronóstico válido del 15 a las 06 UTC al 16 a las 06 UTC
Viento 10 kt del este
Visibilidad 10 km o más
Nubes dispersas a una altura de 1600 ft
Cielo nuboso a una altura de 10000 ft

TAF: NFTF 150514Z 1506/1606 08010KT 9999 SCT016 BKN100

Observaciones y pronósticos meteorológicos de más de 4000 aeropuertos (mensajes METAR y TAF).

Los puntos amarillos y rojos representan las estaciones disponibles.

Ponga el ratón en el punto deseado para ver el nombre de la estación.

Haga clic para ver las observaciones y los pronósticos meteorológicos.

Para cambiar el mapa : haga clic en los botones verdes con una cruz de color negro para hacer un zoom, en el botón verde con un guión para alejar o en las flechas verdes para mapas adyacentes.


METAR-TAF: